createdAt,value
2023-02-19T00:00:05.563Z,4.70
2023-02-19T00:02:41.934Z,4.10
2023-02-19T00:05:10.553Z,4.20
2023-02-19T00:07:39.299Z,3.80
2023-02-19T00:10:08.811Z,4.10
2023-02-19T00:12:37.767Z,3.60
2023-02-19T00:15:07.922Z,3.90
2023-02-19T00:17:36.602Z,4.00
2023-02-19T00:20:07.951Z,4.50
2023-02-19T00:22:36.592Z,4.20
2023-02-19T00:25:06.039Z,4.00
2023-02-19T00:27:35.238Z,3.90
2023-02-19T00:30:05.123Z,2.90
2023-02-19T00:32:34.468Z,3.20
2023-02-19T00:35:02.845Z,3.70
2023-02-19T00:37:32.750Z,3.40
2023-02-19T00:40:01.256Z,3.40
2023-02-19T00:42:30.329Z,3.30
2023-02-19T00:44:58.927Z,3.30
2023-02-19T00:47:27.504Z,3.20
2023-02-19T00:49:55.972Z,3.90
2023-02-19T00:52:24.623Z,3.60
2023-02-19T00:54:53.407Z,3.00
2023-02-19T00:57:22.341Z,3.00
2023-02-19T00:59:50.932Z,3.10
2023-02-19T01:02:20.158Z,3.70
2023-02-19T01:04:51.258Z,3.70
2023-02-19T01:07:19.947Z,3.20
2023-02-19T01:09:48.451Z,2.70
2023-02-19T01:12:17.664Z,3.60
2023-02-19T01:14:46.636Z,3.20
2023-02-19T01:17:16.433Z,2.90
2023-02-19T01:19:44.911Z,2.40
2023-02-19T01:22:13.653Z,2.60
2023-02-19T01:24:42.110Z,2.70
2023-02-19T01:27:10.572Z,3.40
2023-02-19T01:29:39.654Z,2.60
2023-02-19T01:32:08.603Z,2.40
2023-02-19T01:34:42.254Z,2.40
2023-02-19T01:37:12.381Z,2.40
2023-02-19T01:39:41.567Z,2.80
2023-02-19T01:42:14.612Z,2.40
2023-02-19T01:44:42.987Z,2.50
2023-02-19T01:47:12.170Z,2.40
2023-02-19T01:49:49.035Z,3.40
2023-02-19T01:52:32.850Z,2.40
2023-02-19T01:55:02.667Z,2.40
2023-02-19T01:57:35.132Z,2.70
2023-02-19T02:00:06.642Z,3.00
2023-02-19T02:02:43.010Z,3.20
2023-02-19T02:05:41.398Z,3.00
2023-02-19T02:08:30.171Z,2.90
2023-02-19T02:10:58.693Z,3.30
2023-02-19T02:13:27.242Z,2.60
2023-02-19T02:16:11.576Z,2.50
2023-02-19T02:18:57.092Z,2.40
2023-02-19T02:24:27.742Z,2.30
2023-02-19T02:27:34.470Z,2.60
2023-02-19T02:30:37.736Z,2.70
2023-02-19T02:33:19.729Z,2.70
2023-02-19T02:35:57.327Z,2.20
2023-02-19T02:38:29.455Z,2.60
2023-02-19T02:40:57.893Z,3.40
2023-02-19T02:43:26.450Z,2.40
2023-02-19T02:45:55.986Z,3.00
2023-02-19T02:48:43.790Z,2.80
2023-02-19T02:51:25.066Z,2.10
2023-02-19T02:54:24.168Z,3.60
2023-02-19T02:56:52.644Z,2.20
2023-02-19T02:59:24.000Z,2.60
2023-02-19T03:05:20.889Z,2.40
2023-02-19T03:07:59.617Z,2.70
2023-02-19T03:10:51.067Z,2.20
2023-02-19T03:13:53.541Z,2.10
2023-02-19T03:16:46.257Z,2.70
2023-02-19T03:19:22.144Z,2.60
2023-02-19T03:22:03.473Z,2.20
2023-02-19T03:24:51.321Z,2.30
2023-02-19T03:27:20.352Z,2.70
2023-02-19T03:29:50.512Z,2.10
2023-02-19T03:32:24.523Z,2.80
2023-02-19T03:35:03.815Z,3.10
2023-02-19T03:37:47.437Z,3.10
2023-02-19T03:40:17.335Z,2.80
2023-02-19T03:43:20.224Z,3.20
2023-02-19T03:45:55.174Z,2.90
2023-02-19T03:49:04.671Z,2.40
2023-02-19T03:51:45.173Z,3.40
2023-02-19T03:54:37.782Z,3.40
2023-02-19T03:57:08.978Z,3.00
2023-02-19T03:59:49.501Z,3.00
2023-02-19T04:02:32.347Z,3.10
2023-02-19T04:05:14.554Z,3.00
2023-02-19T04:07:46.287Z,2.60
2023-02-19T04:13:09.012Z,2.60
2023-02-19T04:15:38.453Z,2.40
2023-02-19T04:18:12.820Z,2.50
2023-02-19T04:20:44.014Z,2.70
2023-02-19T04:23:13.102Z,3.20
2023-02-19T04:25:42.710Z,3.00
2023-02-19T04:28:11.575Z,3.20
2023-02-19T04:30:40.147Z,3.70
2023-02-19T04:33:11.397Z,2.70
2023-02-19T04:35:40.008Z,2.70
2023-02-19T04:38:08.850Z,2.60
2023-02-19T04:40:37.837Z,3.90
2023-02-19T04:43:06.989Z,3.30
2023-02-19T04:45:37.880Z,3.00
2023-02-19T04:48:06.257Z,3.30
2023-02-19T04:50:34.826Z,3.50
2023-02-19T04:53:04.015Z,3.40
2023-02-19T04:55:37.122Z,2.60
2023-02-19T04:58:05.524Z,3.70
2023-02-19T05:00:34.567Z,3.20
2023-02-19T05:03:03.026Z,2.90
2023-02-19T05:05:31.816Z,2.60
2023-02-19T05:08:05.433Z,3.40
2023-02-19T05:10:34.925Z,3.20
2023-02-19T05:13:03.299Z,3.70
2023-02-19T05:15:33.555Z,2.80
2023-02-19T05:18:02.018Z,2.80
2023-02-19T05:20:30.484Z,3.40
2023-02-19T05:22:59.205Z,4.00
2023-02-19T05:25:27.669Z,3.60
2023-02-19T05:28:16.103Z,4.00
2023-02-19T05:30:51.809Z,4.30
2023-02-19T05:33:21.053Z,3.50
2023-02-19T05:35:51.333Z,3.80
2023-02-19T05:38:20.469Z,3.30
2023-02-19T05:40:49.166Z,3.90
2023-02-19T05:43:38.665Z,4.20
2023-02-19T05:46:07.653Z,4.40
2023-02-19T05:48:36.627Z,3.50
2023-02-19T05:51:15.948Z,4.00
2023-02-19T05:53:45.182Z,3.70
2023-02-19T05:56:37.390Z,4.70
2023-02-19T05:59:08.747Z,3.30
2023-02-19T06:01:38.035Z,4.30
2023-02-19T06:04:06.674Z,4.20
2023-02-19T06:06:35.373Z,4.10
2023-02-19T06:09:05.127Z,3.60
2023-02-19T06:11:33.708Z,4.00
2023-02-19T06:14:02.146Z,4.60
2023-02-19T06:16:32.400Z,3.90
2023-02-19T06:19:04.232Z,4.00
2023-02-19T06:21:33.821Z,3.70
2023-02-19T06:24:08.010Z,4.20
2023-02-19T06:26:37.512Z,4.60
2023-02-19T06:29:06.138Z,4.60
2023-02-19T06:31:35.132Z,4.20
2023-02-19T06:34:05.203Z,4.00
2023-02-19T06:36:34.567Z,3.90
2023-02-19T06:39:04.039Z,4.20
2023-02-19T06:41:33.527Z,4.10
2023-02-19T06:44:02.325Z,4.40
2023-02-19T06:46:31.342Z,4.10
2023-02-19T06:49:00.196Z,4.40
2023-02-19T06:51:29.949Z,4.30
2023-02-19T06:54:02.694Z,4.40
2023-02-19T06:56:33.523Z,4.20
2023-02-19T06:59:03.164Z,4.70
2023-02-19T07:01:32.517Z,4.40
2023-02-19T07:04:02.553Z,4.00
2023-02-19T07:06:31.533Z,4.10
2023-02-19T07:09:00.432Z,3.80
2023-02-19T07:11:31.863Z,4.70
2023-02-19T07:14:01.569Z,3.70
2023-02-19T07:16:30.721Z,4.50
2023-02-19T07:19:00.132Z,4.90
2023-02-19T07:21:32.238Z,4.80
2023-02-19T07:24:01.533Z,4.60
2023-02-19T07:26:34.727Z,4.70
2023-02-19T07:29:03.158Z,5.40
2023-02-19T07:31:31.859Z,4.70
2023-02-19T07:34:01.013Z,4.00
2023-02-19T07:36:30.014Z,4.10
2023-02-19T07:39:00.513Z,4.50
2023-02-19T07:41:28.808Z,4.70
2023-02-19T07:43:59.171Z,4.50
2023-02-19T07:46:28.153Z,4.90
2023-02-19T07:49:00.125Z,4.20
2023-02-19T07:51:30.206Z,4.30
2023-02-19T07:54:01.649Z,4.30
2023-02-19T07:56:30.639Z,5.00
2023-02-19T07:59:00.555Z,4.10
2023-02-19T08:01:48.175Z,4.30
2023-02-19T08:04:16.683Z,3.80
2023-02-19T08:06:45.257Z,4.40
2023-02-19T08:09:14.445Z,4.20
2023-02-19T08:12:01.870Z,4.80
2023-02-19T08:14:31.319Z,4.10
2023-02-19T08:17:00.227Z,4.40
2023-02-19T08:19:29.583Z,3.60
2023-02-19T08:21:58.381Z,3.60
2023-02-19T08:24:29.241Z,4.00
2023-02-19T08:26:57.941Z,3.30
2023-02-19T08:29:26.611Z,3.30
2023-02-19T08:31:55.172Z,4.10
2023-02-19T08:34:23.647Z,3.80
2023-02-19T08:36:53.234Z,4.20
2023-02-19T08:39:22.338Z,3.60
2023-02-19T08:41:51.732Z,3.70
2023-02-19T08:44:20.215Z,3.50
2023-02-19T08:46:54.325Z,3.00
2023-02-19T08:49:27.069Z,3.20
2023-02-19T08:51:55.685Z,3.00
2023-02-19T08:54:24.220Z,3.00
2023-02-19T08:56:52.793Z,3.60
2023-02-19T08:59:21.265Z,2.80
2023-02-19T09:01:49.844Z,3.20
2023-02-19T09:04:18.483Z,2.70
2023-02-19T09:06:47.292Z,2.70
2023-02-19T09:09:17.536Z,3.00
2023-02-19T09:11:49.064Z,3.10
2023-02-19T09:16:46.846Z,3.40
2023-02-19T09:19:15.330Z,3.10
2023-02-19T09:21:43.807Z,3.00
2023-02-19T09:24:12.298Z,3.10
2023-02-19T09:26:41.902Z,2.90
2023-02-19T09:29:10.686Z,3.10
2023-02-19T09:31:39.346Z,3.00
2023-02-19T09:34:08.162Z,2.70
2023-02-19T09:36:36.912Z,2.70
2023-02-19T09:39:07.848Z,3.00
2023-02-19T09:41:45.398Z,3.10
2023-02-19T09:44:16.958Z,3.00
2023-02-19T09:46:47.673Z,3.10
2023-02-19T09:49:20.120Z,2.70
2023-02-19T09:51:54.472Z,3.10
2023-02-19T09:54:26.692Z,2.60
2023-02-19T09:59:27.508Z,2.60
2023-02-19T10:02:14.761Z,2.80
2023-02-19T10:04:44.434Z,2.80
2023-02-19T10:07:14.646Z,3.00
2023-02-19T10:09:45.581Z,3.00
2023-02-19T10:12:28.651Z,2.80
2023-02-19T10:15:06.265Z,3.20
2023-02-19T10:17:37.853Z,2.80
2023-02-19T10:20:07.132Z,2.80
2023-02-19T10:22:36.365Z,2.60
2023-02-19T10:25:05.333Z,3.50
2023-02-19T10:27:33.813Z,2.60
2023-02-19T10:30:02.299Z,3.60
2023-02-19T10:32:31.336Z,3.80
2023-02-19T10:35:12.281Z,2.80
2023-02-19T10:37:44.687Z,2.90
2023-02-19T10:40:19.259Z,3.10
2023-02-19T10:42:49.688Z,3.00
2023-02-19T10:45:50.599Z,2.90
2023-02-19T10:48:29.143Z,3.20
2023-02-19T10:51:05.118Z,2.90
2023-02-19T10:53:47.516Z,2.50
2023-02-19T10:56:22.851Z,2.70
2023-02-19T10:58:51.640Z,2.90
2023-02-19T11:01:25.769Z,3.40
2023-02-19T11:04:15.145Z,3.50
2023-02-19T11:06:43.589Z,2.90
2023-02-19T11:09:30.535Z,3.20
2023-02-19T11:12:05.814Z,2.50
2023-02-19T11:14:34.494Z,2.90
2023-02-19T11:17:04.923Z,2.40
2023-02-19T11:19:40.500Z,2.70
2023-02-19T11:22:29.491Z,2.30
2023-02-19T11:25:25.801Z,2.10
2023-02-19T11:28:08.092Z,2.90
2023-02-19T11:30:41.522Z,3.00
2023-02-19T11:33:25.050Z,2.80
2023-02-19T11:36:15.379Z,3.20
2023-02-19T11:38:44.806Z,3.60
2023-02-19T11:41:40.983Z,2.80
2023-02-19T11:44:31.179Z,2.40
2023-02-19T11:47:00.292Z,3.00
2023-02-19T11:49:59.078Z,2.70
2023-02-19T11:53:02.938Z,3.00
2023-02-19T11:55:59.105Z,2.60
2023-02-19T11:58:43.386Z,2.40
2023-02-19T12:01:17.497Z,2.50
2023-02-19T12:04:25.645Z,3.00
2023-02-19T12:07:18.349Z,3.50
2023-02-19T12:10:17.236Z,2.70
2023-02-19T12:13:24.832Z,3.20
2023-02-19T12:16:05.961Z,2.30
2023-02-19T12:18:52.308Z,2.80
2023-02-19T12:21:55.804Z,3.10
2023-02-19T12:24:39.075Z,2.80
2023-02-19T12:27:27.265Z,3.00
2023-02-19T12:30:48.443Z,3.10
2023-02-19T12:33:44.874Z,2.90
2023-02-19T12:36:44.435Z,3.10
2023-02-19T12:39:18.863Z,3.10
2023-02-19T12:42:26.700Z,2.20
2023-02-19T12:44:57.951Z,2.60
2023-02-19T12:47:38.589Z,2.20
2023-02-19T12:50:21.958Z,2.20
2023-02-19T12:52:53.877Z,1.70
2023-02-19T12:57:58.885Z,2.10
2023-02-19T13:00:32.417Z,2.30
2023-02-19T13:03:21.043Z,1.90
2023-02-19T13:05:58.803Z,2.20
2023-02-19T13:08:48.788Z,2.60
2023-02-19T13:11:30.580Z,2.40
2023-02-19T13:14:35.696Z,2.00
2023-02-19T13:17:25.979Z,2.20
2023-02-19T13:20:15.963Z,2.20
2023-02-19T13:23:06.049Z,1.70
2023-02-19T13:25:44.446Z,2.10
2023-02-19T13:28:26.107Z,2.20
2023-02-19T13:31:04.829Z,2.40
2023-02-19T13:33:53.571Z,2.50
2023-02-19T13:36:31.277Z,2.40
2023-02-19T13:39:00.010Z,2.20
2023-02-19T13:41:56.001Z,2.20
2023-02-19T13:44:34.208Z,2.10
2023-02-19T13:47:06.291Z,1.70
2023-02-19T13:49:38.533Z,2.20
2023-02-19T13:52:39.903Z,2.20
2023-02-19T13:55:49.834Z,1.40
2023-02-19T13:58:34.969Z,2.10
2023-02-19T14:01:07.702Z,2.70
2023-02-19T14:03:40.775Z,2.10
2023-02-19T14:06:09.967Z,2.10
2023-02-19T14:08:57.865Z,2.20
2023-02-19T14:11:41.627Z,2.30
2023-02-19T14:14:26.668Z,2.60
2023-02-19T14:16:57.096Z,2.20
2023-02-19T14:19:42.710Z,1.90
2023-02-19T14:22:48.898Z,2.20
2023-02-19T14:25:59.615Z,2.00
2023-02-19T14:28:30.338Z,2.30
2023-02-19T14:34:14.839Z,2.30
2023-02-19T14:36:48.759Z,2.00
2023-02-19T14:39:20.925Z,2.40
2023-02-19T14:41:54.770Z,2.30
2023-02-19T14:44:25.883Z,2.70
2023-02-19T14:46:58.342Z,2.30
2023-02-19T14:49:47.181Z,2.20
2023-02-19T14:52:32.281Z,3.10
2023-02-19T14:55:02.094Z,3.30
2023-02-19T14:57:45.751Z,3.20
2023-02-19T15:00:23.254Z,3.60
2023-02-19T15:02:53.411Z,3.80
2023-02-19T15:05:24.845Z,4.00
2023-02-19T15:07:54.161Z,3.50
2023-02-19T15:10:23.056Z,4.30
2023-02-19T15:12:56.205Z,6.30
2023-02-19T15:15:27.226Z,7.60
2023-02-19T15:17:56.796Z,6.20
2023-02-19T15:20:27.218Z,5.80
2023-02-19T15:22:57.238Z,5.60
2023-02-19T15:25:33.915Z,6.50
2023-02-19T15:28:24.111Z,5.90
2023-02-19T15:30:58.875Z,6.40
2023-02-19T15:33:28.078Z,5.90
2023-02-19T15:36:11.518Z,5.70
2023-02-19T15:38:40.168Z,8.00
2023-02-19T15:41:19.028Z,10.60
2023-02-19T15:43:54.044Z,9.30
2023-02-19T15:46:23.233Z,9.70
2023-02-19T15:49:06.945Z,7.80
2023-02-19T15:51:41.038Z,6.50
2023-02-19T15:54:44.052Z,7.30
2023-02-19T15:57:16.535Z,7.60
2023-02-19T15:59:48.502Z,6.30
2023-02-19T16:02:17.070Z,6.90
2023-02-19T16:04:46.150Z,5.80
2023-02-19T16:07:28.784Z,7.80
2023-02-19T16:10:23.350Z,6.60
2023-02-19T16:12:56.665Z,7.50
2023-02-19T16:15:26.024Z,6.60
2023-02-19T16:17:55.127Z,7.20
2023-02-19T16:20:29.235Z,7.40
2023-02-19T16:23:19.184Z,7.80
2023-02-19T16:25:47.549Z,7.40
2023-02-19T16:28:23.735Z,6.50
2023-02-19T16:31:12.996Z,6.20
2023-02-19T16:33:48.774Z,6.10
2023-02-19T16:36:21.825Z,6.90
2023-02-19T16:39:08.548Z,6.60
2023-02-19T16:41:40.229Z,6.70
2023-02-19T16:44:39.826Z,6.40
2023-02-19T16:47:15.685Z,6.50
2023-02-19T16:49:44.468Z,7.40
2023-02-19T16:52:14.178Z,6.50
2023-02-19T16:54:43.460Z,5.90
2023-02-19T16:57:12.136Z,6.40
2023-02-19T16:59:40.611Z,5.60
2023-02-19T17:02:11.065Z,4.80
2023-02-19T17:04:40.090Z,5.50
2023-02-19T17:07:15.778Z,4.30
2023-02-19T17:09:44.367Z,5.90
2023-02-19T17:12:14.584Z,4.40
2023-02-19T17:14:44.597Z,4.60
2023-02-19T17:17:13.735Z,3.90
2023-02-19T17:19:42.320Z,3.00
2023-02-19T17:22:17.281Z,3.50
2023-02-19T17:24:48.555Z,3.10
2023-02-19T17:27:17.266Z,3.50
2023-02-19T17:29:46.058Z,3.20
2023-02-19T17:32:14.768Z,3.60
2023-02-19T17:34:43.299Z,3.10
2023-02-19T17:37:12.437Z,3.40
2023-02-19T17:39:40.983Z,3.60
2023-02-19T17:42:09.438Z,3.30
2023-02-19T17:44:38.143Z,3.60
2023-02-19T17:47:07.041Z,3.60
2023-02-19T17:49:36.583Z,3.80
2023-02-19T17:52:05.302Z,3.50
2023-02-19T17:54:34.642Z,3.60
2023-02-19T17:57:03.224Z,3.30
2023-02-19T17:59:31.997Z,4.40
2023-02-19T18:02:02.226Z,7.20
2023-02-19T18:04:31.746Z,12.10
2023-02-19T18:07:00.310Z,12.40
2023-02-19T18:09:29.152Z,13.80
2023-02-19T18:11:57.532Z,12.60
2023-02-19T18:14:28.422Z,14.70
2023-02-19T18:16:57.258Z,14.40
2023-02-19T18:19:26.199Z,10.60
2023-02-19T18:21:54.936Z,9.20
2023-02-19T18:24:23.528Z,8.90
2023-02-19T18:26:55.474Z,7.30
2023-02-19T18:29:26.196Z,7.20
2023-02-19T18:31:57.817Z,6.50
2023-02-19T18:34:26.504Z,6.60
2023-02-19T18:36:54.999Z,5.10
2023-02-19T18:39:25.007Z,6.70
2023-02-19T18:41:53.542Z,6.70
2023-02-19T18:44:23.133Z,7.00
2023-02-19T18:46:51.572Z,5.40
2023-02-19T18:49:20.184Z,7.00
2023-02-19T18:51:48.689Z,6.10
2023-02-19T18:54:17.749Z,6.50
2023-02-19T18:56:46.989Z,7.80
2023-02-19T18:59:15.929Z,11.20
2023-02-19T19:01:44.477Z,13.80
2023-02-19T19:04:14.347Z,14.50
2023-02-19T19:06:43.929Z,15.70
2023-02-19T19:09:12.409Z,15.60
2023-02-19T19:11:41.923Z,15.70
2023-02-19T19:14:10.807Z,15.90
2023-02-19T19:16:40.870Z,15.70
2023-02-19T19:19:09.746Z,15.30
2023-02-19T19:21:38.509Z,12.40
2023-02-19T19:24:07.463Z,10.80
2023-02-19T19:26:36.084Z,10.00
2023-02-19T19:29:04.767Z,9.00
2023-02-19T19:31:34.946Z,8.90
2023-02-19T19:34:04.094Z,7.10
2023-02-19T19:36:33.144Z,7.50
2023-02-19T19:39:02.333Z,7.00
2023-02-19T19:41:31.668Z,6.50
2023-02-19T19:44:05.645Z,7.00
2023-02-19T19:46:34.866Z,6.90
2023-02-19T19:49:05.931Z,8.00
2023-02-19T19:51:36.217Z,8.50
2023-02-19T19:54:05.276Z,7.30
2023-02-19T19:56:40.629Z,7.30
2023-02-19T19:59:13.202Z,7.80
2023-02-19T20:02:08.266Z,6.80
2023-02-19T20:04:37.263Z,5.80
2023-02-19T20:07:06.402Z,5.00
2023-02-19T20:09:37.303Z,5.40
2023-02-19T20:12:06.998Z,5.80
2023-02-19T20:14:35.587Z,5.50
2023-02-19T20:17:09.815Z,6.00
2023-02-19T20:19:39.658Z,6.70
2023-02-19T20:22:08.320Z,6.90
2023-02-19T20:24:37.093Z,6.90
2023-02-19T20:27:05.599Z,7.80
2023-02-19T20:29:34.778Z,6.40
2023-02-19T20:32:03.997Z,8.50
2023-02-19T20:34:33.938Z,8.70
2023-02-19T20:37:02.752Z,8.00
2023-02-19T20:39:32.076Z,8.00
2023-02-19T20:42:00.960Z,8.30
2023-02-19T20:44:32.144Z,6.70
2023-02-19T20:47:00.820Z,7.00
2023-02-19T20:49:30.650Z,5.50
2023-02-19T20:52:01.259Z,5.50
2023-02-19T20:54:32.050Z,5.10
2023-02-19T20:57:02.707Z,4.70
2023-02-19T20:59:35.344Z,5.20
2023-02-19T21:02:06.667Z,5.00
2023-02-19T21:04:37.771Z,5.20
2023-02-19T21:07:07.294Z,5.40
2023-02-19T21:09:36.052Z,5.50
2023-02-19T21:12:05.542Z,5.80
2023-02-19T21:14:37.192Z,5.50
2023-02-19T21:17:06.796Z,4.90
2023-02-19T21:19:40.437Z,6.00
2023-02-19T21:22:09.011Z,5.70
2023-02-19T21:24:37.806Z,5.60
2023-02-19T21:27:06.720Z,5.90
2023-02-19T21:29:35.075Z,6.00
2023-02-19T21:32:03.689Z,6.40
2023-02-19T21:34:32.248Z,7.50
2023-02-19T21:37:02.152Z,6.60
2023-02-19T21:39:32.694Z,7.10
2023-02-19T21:42:03.936Z,7.00
2023-02-19T21:44:32.933Z,8.10
2023-02-19T21:47:02.918Z,7.10
2023-02-19T21:49:31.937Z,7.40
2023-02-19T21:52:01.439Z,8.10
2023-02-19T21:54:30.228Z,8.20
2023-02-19T21:57:01.692Z,8.20
2023-02-19T22:01:58.851Z,8.10
2023-02-19T22:04:27.978Z,6.60
2023-02-19T22:06:56.909Z,8.40
2023-02-19T22:09:26.477Z,8.30
2023-02-19T22:11:55.058Z,9.00
2023-02-19T22:14:23.433Z,8.00
2023-02-19T22:16:52.430Z,8.80
2023-02-19T22:19:20.977Z,8.70
2023-02-19T22:21:49.594Z,9.70
2023-02-19T22:24:20.174Z,9.60
2023-02-19T22:26:50.818Z,10.20
2023-02-19T22:29:19.461Z,9.30
2023-02-19T22:31:49.932Z,9.10
2023-02-19T22:34:18.433Z,9.40
2023-02-19T22:36:48.877Z,8.20
2023-02-19T22:39:37.329Z,8.90
2023-02-19T22:42:06.524Z,11.60
2023-02-19T22:44:37.055Z,13.20
2023-02-19T22:47:05.641Z,10.30
2023-02-19T22:49:37.323Z,11.50
2023-02-19T22:52:08.115Z,10.80
2023-02-19T22:54:37.134Z,10.10
2023-02-19T22:57:05.808Z,10.10
2023-02-19T22:59:34.571Z,9.80
2023-02-19T23:02:02.950Z,8.90
2023-02-19T23:04:31.987Z,9.70
2023-02-19T23:07:00.661Z,9.10
2023-02-19T23:09:29.925Z,9.40
2023-02-19T23:12:02.397Z,9.40
2023-02-19T23:14:32.868Z,9.40
2023-02-19T23:17:01.631Z,9.60
2023-02-19T23:19:32.837Z,9.10
2023-02-19T23:22:02.035Z,9.70
2023-02-19T23:24:31.022Z,10.00
2023-02-19T23:27:00.826Z,9.80
2023-02-19T23:29:31.056Z,8.60
2023-02-19T23:32:00.534Z,9.60
2023-02-19T23:34:29.730Z,8.90
2023-02-19T23:37:02.812Z,9.90
2023-02-19T23:39:32.253Z,8.50
2023-02-19T23:42:02.439Z,11.10
2023-02-19T23:44:31.531Z,9.90
2023-02-19T23:47:00.121Z,10.20
2023-02-19T23:49:28.737Z,10.10
2023-02-19T23:51:57.112Z,10.70
2023-02-19T23:54:26.188Z,12.40
2023-02-19T23:56:55.680Z,10.40
2023-02-19T23:59:24.153Z,12.30
